createdAt,value
2023-04-19T00:01:25.084Z,18.10
2023-04-19T00:03:56.899Z,17.90
2023-04-19T00:06:30.565Z,18.20
2023-04-19T00:09:01.487Z,18.30
2023-04-19T00:11:32.425Z,17.80
2023-04-19T00:14:03.357Z,17.90
2023-04-19T00:16:34.486Z,18.00
2023-04-19T00:19:05.435Z,17.80
2023-04-19T00:21:36.304Z,17.90
2023-04-19T00:24:07.327Z,17.90
2023-04-19T00:26:38.250Z,17.80
2023-04-19T00:29:09.622Z,17.90
2023-04-19T00:31:40.552Z,17.90
2023-04-19T00:34:11.399Z,18.20
2023-04-19T00:36:42.258Z,18.40
2023-04-19T00:39:13.690Z,17.90
2023-04-19T00:41:44.593Z,17.90
2023-04-19T00:44:15.858Z,17.50
2023-04-19T00:46:47.036Z,17.90
2023-04-19T00:49:20.914Z,18.00
2023-04-19T00:51:52.038Z,17.90
2023-04-19T00:54:23.975Z,17.80
2023-04-19T00:56:56.028Z,17.60
2023-04-19T00:59:27.170Z,17.70
2023-04-19T01:01:58.386Z,17.80
2023-04-19T01:04:29.464Z,17.70
2023-04-19T01:07:01.989Z,17.50
2023-04-19T01:09:32.852Z,17.60
2023-04-19T01:12:03.942Z,17.40
2023-04-19T01:14:34.915Z,17.70
2023-04-19T01:17:07.817Z,17.40
2023-04-19T01:19:38.741Z,17.40
2023-04-19T01:22:10.658Z,17.40
2023-04-19T01:24:41.514Z,17.50
2023-04-19T01:27:14.079Z,17.10
2023-04-19T01:29:44.954Z,17.20
2023-04-19T01:32:15.919Z,17.30
2023-04-19T01:34:48.679Z,17.20
2023-04-19T01:37:19.607Z,16.60
2023-04-19T01:39:50.627Z,16.70
2023-04-19T01:42:21.691Z,16.80
2023-04-19T01:44:52.615Z,17.20
2023-04-19T01:47:25.058Z,16.80
2023-04-19T01:49:56.019Z,17.00
2023-04-19T01:52:26.927Z,17.20
2023-04-19T01:54:57.894Z,17.20
2023-04-19T01:57:28.735Z,17.20
2023-04-19T01:59:59.724Z,17.10
2023-04-19T02:02:30.858Z,17.30
2023-04-19T02:05:01.820Z,17.00
2023-04-19T02:07:32.665Z,17.00
2023-04-19T02:10:05.934Z,17.30
2023-04-19T02:12:37.071Z,17.20
2023-04-19T02:15:08.540Z,16.60
2023-04-19T02:17:40.592Z,16.60
2023-04-19T02:20:11.650Z,16.90
2023-04-19T02:22:43.867Z,17.20
2023-04-19T02:25:15.726Z,17.00
2023-04-19T02:27:46.641Z,17.10
2023-04-19T02:30:17.753Z,17.00
2023-04-19T02:32:49.605Z,16.90
2023-04-19T02:35:20.706Z,17.00
2023-04-19T02:37:51.549Z,16.90
2023-04-19T02:40:23.780Z,16.90
2023-04-19T02:42:54.646Z,17.00
2023-04-19T02:45:25.609Z,16.90
2023-04-19T02:47:56.654Z,16.80
2023-04-19T02:50:27.897Z,16.60
2023-04-19T02:52:59.134Z,16.70
2023-04-19T02:55:29.994Z,16.70
2023-04-19T02:58:00.900Z,16.80
2023-04-19T03:00:31.908Z,16.60
2023-04-19T03:03:04.774Z,16.70
2023-04-19T03:05:35.902Z,16.80
2023-04-19T03:08:06.814Z,16.70
2023-04-19T03:10:37.736Z,16.60
2023-04-19T03:13:08.582Z,16.80
2023-04-19T03:15:39.510Z,16.90
2023-04-19T03:18:10.547Z,17.00
2023-04-19T03:20:41.414Z,17.00
2023-04-19T03:23:12.258Z,16.90
2023-04-19T03:25:43.261Z,16.80
2023-04-19T03:28:14.737Z,17.00
2023-04-19T03:30:45.882Z,17.00
2023-04-19T03:33:16.770Z,16.90
2023-04-19T03:35:47.717Z,16.90
2023-04-19T03:38:18.576Z,17.00
2023-04-19T03:40:50.093Z,17.40
2023-04-19T03:43:21.134Z,17.40
2023-04-19T03:45:52.283Z,17.00
2023-04-19T03:48:23.216Z,16.90
2023-04-19T03:50:54.154Z,16.70
2023-04-19T03:53:25.087Z,16.70
2023-04-19T03:55:56.001Z,16.60
2023-04-19T03:58:26.940Z,16.60
2023-04-19T04:00:59.642Z,16.40
2023-04-19T04:03:31.315Z,16.40
2023-04-19T04:06:02.427Z,16.50
2023-04-19T04:08:33.292Z,16.50
2023-04-19T04:11:04.388Z,16.50
2023-04-19T04:13:35.298Z,16.40
2023-04-19T04:16:06.400Z,16.30
2023-04-19T04:18:37.292Z,16.50
2023-04-19T04:21:08.243Z,16.40
2023-04-19T04:23:39.164Z,16.50
2023-04-19T04:26:11.086Z,16.40
2023-04-19T04:28:42.432Z,16.20
2023-04-19T04:31:13.393Z,15.60
2023-04-19T04:33:45.945Z,15.80
2023-04-19T04:36:16.851Z,16.30
2023-04-19T04:38:47.972Z,15.90
2023-04-19T04:41:22.512Z,15.90
2023-04-19T04:44:08.292Z,16.20
2023-04-19T04:46:42.189Z,16.20
2023-04-19T04:49:13.072Z,16.30
2023-04-19T04:51:43.950Z,16.50
2023-04-19T04:54:15.013Z,16.60
2023-04-19T04:56:46.198Z,16.40
2023-04-19T04:59:17.094Z,16.10
2023-04-19T05:01:48.010Z,16.30
2023-04-19T05:04:19.730Z,16.40
2023-04-19T05:06:50.668Z,15.70
2023-04-19T05:09:21.566Z,16.30
2023-04-19T05:11:52.543Z,16.10
2023-04-19T05:14:23.560Z,15.90
2023-04-19T05:16:54.515Z,16.40
2023-04-19T05:19:25.486Z,16.40
2023-04-19T05:21:56.481Z,16.60
2023-04-19T05:24:27.517Z,16.20
2023-04-19T05:26:58.463Z,15.60
2023-04-19T05:29:29.319Z,16.40
2023-04-19T05:32:00.253Z,16.60
2023-04-19T05:34:31.559Z,16.50
2023-04-19T05:37:03.690Z,15.90
2023-04-19T05:39:34.620Z,16.60
2023-04-19T05:42:05.645Z,16.50
2023-04-19T05:44:36.535Z,16.40
2023-04-19T05:47:07.508Z,16.40
2023-04-19T05:49:38.361Z,16.50
2023-04-19T05:52:09.370Z,16.40
2023-04-19T05:54:40.343Z,16.30
2023-04-19T05:57:11.262Z,16.20
2023-04-19T05:59:44.144Z,16.50
2023-04-19T06:02:15.940Z,16.40
2023-04-19T06:04:47.047Z,16.60
2023-04-19T06:07:30.964Z,16.70
2023-04-19T06:10:06.285Z,16.70
2023-04-19T06:12:37.182Z,16.90
2023-04-19T06:15:09.180Z,16.80
2023-04-19T06:17:40.130Z,17.00
2023-04-19T06:20:12.366Z,16.50
2023-04-19T06:22:46.424Z,16.70
2023-04-19T06:25:17.312Z,17.00
2023-04-19T06:27:48.178Z,17.00
2023-04-19T06:30:19.328Z,16.80
2023-04-19T06:32:50.329Z,17.00
2023-04-19T06:35:21.471Z,17.20
2023-04-19T06:37:52.330Z,17.60
2023-04-19T06:40:23.318Z,17.60
2023-04-19T06:42:54.287Z,17.20
2023-04-19T06:45:25.193Z,17.60
2023-04-19T06:47:56.525Z,17.10
2023-04-19T06:50:27.821Z,17.30
2023-04-19T06:52:58.730Z,17.10
2023-04-19T06:55:29.858Z,17.20
2023-04-19T06:58:00.847Z,17.30
2023-04-19T07:00:31.977Z,17.20
2023-04-19T07:03:03.343Z,17.10
2023-04-19T07:05:34.631Z,17.40
2023-04-19T07:08:05.594Z,17.20
2023-04-19T07:10:36.505Z,17.40
2023-04-19T07:13:07.367Z,17.50
2023-04-19T07:15:38.463Z,17.70
2023-04-19T07:18:11.108Z,17.50
2023-04-19T07:20:45.077Z,17.90
2023-04-19T07:23:16.244Z,17.80
2023-04-19T07:25:47.165Z,17.90
2023-04-19T07:28:18.128Z,17.80
2023-04-19T07:30:49.008Z,18.00
2023-04-19T07:33:24.145Z,18.10
2023-04-19T07:35:56.688Z,17.60
2023-04-19T07:38:27.558Z,17.70
2023-04-19T07:40:58.529Z,17.70
2023-04-19T07:43:30.806Z,18.10
2023-04-19T07:46:02.103Z,18.10
2023-04-19T07:48:33.027Z,18.30
2023-04-19T07:51:17.550Z,18.30
2023-04-19T07:53:48.689Z,18.20
2023-04-19T07:56:20.274Z,18.40
2023-04-19T07:59:04.242Z,18.40
2023-04-19T08:01:38.401Z,18.50
2023-04-19T08:04:09.695Z,18.50
2023-04-19T08:06:40.689Z,18.60
2023-04-19T08:09:15.341Z,18.00
2023-04-19T08:11:46.739Z,18.50
2023-04-19T08:14:32.503Z,18.70
2023-04-19T08:17:22.331Z,18.80
2023-04-19T08:19:55.562Z,19.70
2023-04-19T08:22:27.098Z,19.80
2023-04-19T08:24:57.983Z,19.90
2023-04-19T08:27:28.863Z,20.00
2023-04-19T08:29:59.945Z,19.50
2023-04-19T08:32:30.897Z,19.40
2023-04-19T08:35:01.886Z,18.60
2023-04-19T08:37:32.799Z,18.60
2023-04-19T08:40:05.498Z,18.80
2023-04-19T08:42:37.262Z,18.70
2023-04-19T08:45:26.827Z,18.30
2023-04-19T08:48:01.907Z,18.70
2023-04-19T08:50:42.774Z,19.30
2023-04-19T08:53:25.109Z,19.50
2023-04-19T08:58:51.974Z,19.70
2023-04-19T09:04:10.415Z,19.70
2023-04-19T09:06:47.671Z,20.10
2023-04-19T09:09:37.082Z,20.30
2023-04-19T09:12:18.550Z,19.40
2023-04-19T09:15:01.152Z,19.50
2023-04-19T09:17:34.745Z,19.30
2023-04-19T09:20:06.953Z,19.60
2023-04-19T09:22:37.891Z,19.80
2023-04-19T09:27:43.267Z,19.50
2023-04-19T09:30:24.180Z,19.40
2023-04-19T09:33:01.892Z,19.70
2023-04-19T09:35:50.212Z,19.90
2023-04-19T09:38:21.299Z,20.10
2023-04-19T09:40:52.821Z,20.20
2023-04-19T09:43:57.499Z,19.90
2023-04-19T09:46:38.254Z,20.10
2023-04-19T09:49:23.251Z,20.20
2023-04-19T09:52:03.067Z,19.20
2023-04-19T09:54:34.266Z,19.70
2023-04-19T09:57:05.593Z,20.20
2023-04-19T09:59:36.480Z,19.80
2023-04-19T10:02:10.903Z,20.30
2023-04-19T10:04:59.704Z,20.50
2023-04-19T10:07:33.859Z,20.50
2023-04-19T10:10:18.595Z,21.10
2023-04-19T10:15:33.722Z,20.50
2023-04-19T10:18:14.757Z,20.60
2023-04-19T10:21:02.050Z,20.50
2023-04-19T10:23:33.902Z,20.30
2023-04-19T10:26:05.344Z,20.60
2023-04-19T10:28:37.243Z,20.40
2023-04-19T10:31:13.748Z,19.90
2023-04-19T10:33:44.712Z,20.30
2023-04-19T10:36:17.670Z,20.20
2023-04-19T10:38:55.492Z,20.20
2023-04-19T10:42:02.176Z,19.70
2023-04-19T10:44:33.136Z,19.80
2023-04-19T10:47:06.297Z,19.90
2023-04-19T10:49:46.998Z,19.70
2023-04-19T10:52:30.040Z,19.70
2023-04-19T10:55:04.965Z,20.10
2023-04-19T10:58:05.486Z,20.10
2023-04-19T11:00:38.240Z,20.10
2023-04-19T11:03:46.275Z,20.20
2023-04-19T11:06:27.095Z,20.10
2023-04-19T11:08:58.245Z,19.60
2023-04-19T11:11:29.359Z,19.70
2023-04-19T11:14:02.592Z,19.70
2023-04-19T11:16:45.092Z,18.80
2023-04-19T11:19:18.311Z,18.70
2023-04-19T11:21:49.937Z,18.90
2023-04-19T11:24:21.116Z,18.70
2023-04-19T11:26:54.083Z,18.80
2023-04-19T11:29:26.332Z,19.00
2023-04-19T11:32:00.261Z,18.70
2023-04-19T11:34:37.602Z,18.30
2023-04-19T11:37:11.046Z,18.50
2023-04-19T11:39:50.863Z,18.40
2023-04-19T11:42:21.922Z,18.40
2023-04-19T11:44:53.232Z,18.60
2023-04-19T11:47:24.675Z,18.10
2023-04-19T11:49:56.697Z,18.20
2023-04-19T11:52:27.602Z,18.10
2023-04-19T11:55:18.768Z,17.70
2023-04-19T11:57:49.988Z,18.00
2023-04-19T12:00:29.164Z,18.40
2023-04-19T12:03:00.449Z,18.50
2023-04-19T12:05:32.015Z,18.20
2023-04-19T12:08:08.424Z,18.00
2023-04-19T12:10:39.353Z,18.20
2023-04-19T12:13:19.314Z,17.80
2023-04-19T12:15:50.217Z,18.20
2023-04-19T12:18:21.288Z,18.00
2023-04-19T12:20:53.289Z,18.00
2023-04-19T12:23:24.206Z,18.00
2023-04-19T12:25:55.153Z,17.70
2023-04-19T12:28:26.185Z,17.40
2023-04-19T12:30:57.069Z,17.70
2023-04-19T12:33:28.025Z,16.90
2023-04-19T12:35:58.871Z,17.30
2023-04-19T12:38:29.746Z,17.30
2023-04-19T12:41:01.790Z,17.50
2023-04-19T12:43:33.437Z,17.90
2023-04-19T12:46:05.624Z,17.40
2023-04-19T12:48:36.641Z,17.60
2023-04-19T12:51:07.553Z,17.30
2023-04-19T12:53:38.539Z,17.20
2023-04-19T12:56:09.461Z,16.40
2023-04-19T12:58:40.410Z,16.70
2023-04-19T13:01:11.407Z,16.90
2023-04-19T13:03:42.577Z,17.30
2023-04-19T13:06:15.488Z,17.40
2023-04-19T13:08:47.898Z,17.80
2023-04-19T13:11:23.228Z,17.90
2023-04-19T13:13:54.509Z,17.80
2023-04-19T13:16:25.524Z,17.70
2023-04-19T13:18:56.497Z,17.70
2023-04-19T13:21:27.998Z,17.60
2023-04-19T13:23:59.560Z,17.80
2023-04-19T13:26:30.471Z,18.20
2023-04-19T13:29:01.504Z,18.60
2023-04-19T13:31:32.447Z,18.10
2023-04-19T13:34:03.419Z,18.10
2023-04-19T13:36:34.294Z,18.00
2023-04-19T13:39:07.592Z,18.10
2023-04-19T13:41:39.365Z,17.90
2023-04-19T13:44:11.072Z,18.10
2023-04-19T13:46:42.030Z,18.10
2023-04-19T13:49:13.028Z,18.30
2023-04-19T13:51:50.195Z,18.10
2023-04-19T13:54:21.966Z,18.20
2023-04-19T13:56:52.875Z,18.20
2023-04-19T13:59:26.166Z,18.10
2023-04-19T14:01:57.231Z,18.10
2023-04-19T14:04:28.407Z,18.30
2023-04-19T14:06:59.439Z,18.20
2023-04-19T14:09:30.545Z,18.20
2023-04-19T14:12:02.477Z,18.30
2023-04-19T14:14:33.401Z,18.20
2023-04-19T14:17:04.273Z,18.50
2023-04-19T14:19:35.228Z,18.60
2023-04-19T14:22:06.358Z,18.70
2023-04-19T14:24:37.268Z,19.00
2023-04-19T14:27:11.541Z,19.60
2023-04-19T14:29:42.726Z,19.40
2023-04-19T14:32:24.205Z,19.60
2023-04-19T14:34:56.633Z,18.90
2023-04-19T14:37:28.000Z,19.30
2023-04-19T14:39:58.884Z,19.50
2023-04-19T14:42:29.835Z,19.20
2023-04-19T14:45:00.754Z,19.70
2023-04-19T14:47:31.694Z,19.50
2023-04-19T14:50:02.762Z,19.20
2023-04-19T14:52:33.811Z,19.10
2023-04-19T14:55:05.478Z,18.70
2023-04-19T14:57:36.509Z,18.90
2023-04-19T15:00:08.407Z,18.90
2023-04-19T15:02:39.411Z,18.80
2023-04-19T15:05:11.038Z,18.90
2023-04-19T15:07:42.129Z,18.80
2023-04-19T15:10:13.002Z,19.70
2023-04-19T15:12:44.111Z,18.90
2023-04-19T15:15:15.070Z,19.50
2023-04-19T15:17:46.554Z,19.30
2023-04-19T15:20:17.645Z,19.10
2023-04-19T15:22:48.666Z,19.60
2023-04-19T15:25:19.617Z,19.60
2023-04-19T15:27:50.612Z,19.10
2023-04-19T15:30:21.545Z,18.50
2023-04-19T15:32:52.568Z,19.10
2023-04-19T15:35:23.571Z,19.30
2023-04-19T15:37:54.468Z,20.10
2023-04-19T15:40:25.519Z,20.60
2023-04-19T15:42:56.393Z,20.80
2023-04-19T15:45:27.323Z,20.40
2023-04-19T15:47:58.234Z,20.90
2023-04-19T15:50:29.101Z,20.20
2023-04-19T15:53:00.045Z,20.00
2023-04-19T15:55:31.876Z,20.20
2023-04-19T15:58:04.284Z,20.20
2023-04-19T16:00:35.411Z,20.00
2023-04-19T16:03:09.093Z,19.70
2023-04-19T16:05:40.234Z,19.10
2023-04-19T16:08:19.237Z,19.70
2023-04-19T16:10:50.669Z,19.90
2023-04-19T16:13:21.810Z,19.20
2023-04-19T16:15:52.830Z,19.60
2023-04-19T16:18:23.731Z,20.10
2023-04-19T16:20:54.947Z,20.00
2023-04-19T16:23:26.002Z,20.30
2023-04-19T16:25:57.090Z,20.60
2023-04-19T16:28:28.080Z,20.60
2023-04-19T16:30:58.963Z,20.70
2023-04-19T16:33:29.986Z,19.60
2023-04-19T16:36:00.997Z,19.20
2023-04-19T16:38:31.919Z,19.60
2023-04-19T16:41:05.469Z,20.00
2023-04-19T16:43:37.032Z,20.50
2023-04-19T16:46:07.933Z,20.10
2023-04-19T16:48:38.891Z,19.90
2023-04-19T16:51:09.782Z,20.20
2023-04-19T16:53:40.835Z,18.80
2023-04-19T16:56:12.323Z,19.90
2023-04-19T16:58:43.275Z,20.40
2023-04-19T17:01:14.629Z,20.50
2023-04-19T17:03:46.654Z,20.20
2023-04-19T17:06:17.994Z,20.40
2023-04-19T17:08:48.997Z,20.70
2023-04-19T17:11:19.993Z,20.30
2023-04-19T17:13:50.931Z,19.90
2023-04-19T17:16:21.936Z,20.10
2023-04-19T17:18:56.116Z,20.00
2023-04-19T17:21:27.626Z,19.60
2023-04-19T17:23:58.518Z,19.20
2023-04-19T17:26:29.438Z,19.30
2023-04-19T17:29:02.068Z,19.40
2023-04-19T17:31:33.110Z,19.60
2023-04-19T17:34:04.154Z,19.40
2023-04-19T17:36:35.080Z,19.30
2023-04-19T17:39:07.882Z,19.00
2023-04-19T17:41:39.154Z,18.30
2023-04-19T17:44:10.679Z,18.70
2023-04-19T17:46:41.630Z,18.90
2023-04-19T17:49:17.616Z,18.90
2023-04-19T17:51:48.971Z,18.50
2023-04-19T17:54:20.786Z,18.40
2023-04-19T17:56:52.704Z,18.30
2023-04-19T17:59:23.714Z,18.30
2023-04-19T18:01:56.958Z,18.80
2023-04-19T18:04:28.118Z,18.10
2023-04-19T18:06:59.927Z,18.10
2023-04-19T18:09:31.014Z,18.40
2023-04-19T18:12:02.806Z,18.10
2023-04-19T18:14:35.689Z,18.00
2023-04-19T18:17:06.762Z,17.90
2023-04-19T18:19:37.870Z,17.80
2023-04-19T18:22:09.113Z,18.00
2023-04-19T18:24:41.692Z,17.60
2023-04-19T18:27:13.480Z,17.60
2023-04-19T18:29:45.088Z,17.90
2023-04-19T18:32:17.040Z,17.60
2023-04-19T18:34:48.934Z,17.40
2023-04-19T18:37:20.094Z,17.40
2023-04-19T18:39:51.582Z,17.00
2023-04-19T18:42:24.050Z,17.00
2023-04-19T18:44:55.166Z,17.00
2023-04-19T18:47:27.439Z,17.00
2023-04-19T18:50:05.437Z,16.70
2023-04-19T18:52:38.371Z,16.60
2023-04-19T18:55:12.411Z,16.60
2023-04-19T18:57:43.507Z,17.10
2023-04-19T19:00:15.885Z,16.40
2023-04-19T19:02:47.557Z,16.80
2023-04-19T19:05:20.699Z,16.50
2023-04-19T19:07:52.659Z,16.70
2023-04-19T19:12:57.760Z,16.60
2023-04-19T19:15:29.461Z,16.50
2023-04-19T19:18:00.836Z,16.40
2023-04-19T19:20:32.787Z,16.40
2023-04-19T19:23:04.013Z,16.40
2023-04-19T19:25:35.556Z,16.50
2023-04-19T19:28:09.713Z,16.40
2023-04-19T19:30:43.107Z,16.20
2023-04-19T19:33:14.289Z,16.30
2023-04-19T19:35:46.038Z,16.00
2023-04-19T19:38:17.169Z,16.10
2023-04-19T19:41:24.589Z,16.00
2023-04-19T19:43:40.850Z,15.80
2023-04-19T19:46:13.899Z,15.80
2023-04-19T19:48:45.345Z,15.70
2023-04-19T19:51:44.135Z,15.60
2023-04-19T19:54:08.310Z,15.80
2023-04-19T19:56:55.554Z,15.60
2023-04-19T19:59:34.558Z,15.40
2023-04-19T20:02:07.096Z,15.60
2023-04-19T20:04:39.157Z,15.40
2023-04-19T20:09:47.475Z,15.00
2023-04-19T20:12:18.967Z,15.00
2023-04-19T20:14:50.217Z,14.80
2023-04-19T20:17:21.292Z,14.80
2023-04-19T20:19:52.616Z,15.00
2023-04-19T20:22:23.611Z,14.70
2023-04-19T20:24:54.726Z,15.20
2023-04-19T20:27:26.152Z,15.20
2023-04-19T20:29:58.033Z,14.80
2023-04-19T20:32:29.302Z,14.50
2023-04-19T20:35:00.870Z,14.40
2023-04-19T20:37:31.851Z,14.20
2023-04-19T20:40:05.843Z,14.20
2023-04-19T20:42:38.048Z,14.20
2023-04-19T20:45:10.615Z,14.30
2023-04-19T20:47:43.067Z,14.30
2023-04-19T20:50:14.423Z,14.10
2023-04-19T20:52:46.070Z,14.00
2023-04-19T20:55:17.729Z,13.90
2023-04-19T20:57:48.903Z,14.00
2023-04-19T21:00:20.359Z,14.10
2023-04-19T21:02:51.623Z,13.90
2023-04-19T21:05:22.873Z,13.90
2023-04-19T21:07:54.244Z,13.70
2023-04-19T21:10:25.468Z,13.40
2023-04-19T21:12:56.890Z,13.20
2023-04-19T21:15:28.456Z,13.20
2023-04-19T21:18:00.186Z,13.30
2023-04-19T21:20:31.463Z,13.20
2023-04-19T21:23:03.659Z,13.20
2023-04-19T21:25:36.474Z,13.10
2023-04-19T21:28:07.990Z,13.20
2023-04-19T21:30:43.568Z,13.00
2023-04-19T21:33:18.341Z,13.00
2023-04-19T21:35:49.786Z,12.80
2023-04-19T21:38:21.597Z,12.80
2023-04-19T21:40:53.242Z,12.70
2023-04-19T21:43:24.322Z,13.00
2023-04-19T21:45:55.486Z,13.00
2023-04-19T21:48:26.512Z,12.90
2023-04-19T21:50:57.892Z,12.80
2023-04-19T21:53:29.095Z,12.60
2023-04-19T21:56:00.133Z,12.50
2023-04-19T21:58:31.582Z,12.60
2023-04-19T22:01:02.596Z,12.60
2023-04-19T22:03:33.717Z,12.50
2023-04-19T22:06:05.024Z,12.60
2023-04-19T22:08:36.358Z,12.60
2023-04-19T22:11:07.204Z,12.10
2023-04-19T22:13:38.273Z,12.30
2023-04-19T22:16:09.189Z,12.40
2023-04-19T22:18:41.548Z,12.20
2023-04-19T22:21:12.583Z,12.20
2023-04-19T22:23:43.436Z,12.40
2023-04-19T22:26:14.331Z,12.30
2023-04-19T22:28:45.389Z,12.40
2023-04-19T22:31:16.772Z,12.10
2023-04-19T22:33:47.924Z,12.20
2023-04-19T22:36:18.860Z,12.30
2023-04-19T22:38:50.028Z,12.00
2023-04-19T22:41:20.970Z,12.00
2023-04-19T22:43:51.931Z,12.10
2023-04-19T22:46:22.833Z,12.10
2023-04-19T22:48:53.858Z,12.00
2023-04-19T22:51:24.806Z,11.90
2023-04-19T22:53:56.005Z,12.20
2023-04-19T22:56:27.102Z,11.70
2023-04-19T22:58:58.030Z,11.70
2023-04-19T23:01:28.956Z,11.80
2023-04-19T23:03:59.897Z,11.40
2023-04-19T23:06:32.498Z,11.30
2023-04-19T23:09:03.665Z,11.40
2023-04-19T23:11:34.787Z,11.80
2023-04-19T23:14:06.278Z,11.70
2023-04-19T23:16:38.738Z,11.50
2023-04-19T23:19:09.739Z,11.40
2023-04-19T23:21:40.812Z,11.70
2023-04-19T23:24:11.951Z,11.70
2023-04-19T23:26:42.832Z,11.70
2023-04-19T23:29:13.700Z,11.80
2023-04-19T23:31:44.741Z,11.70
2023-04-19T23:34:16.656Z,11.30
2023-04-19T23:36:47.553Z,11.30
2023-04-19T23:39:18.996Z,11.30
2023-04-19T23:41:50.256Z,11.00
2023-04-19T23:44:21.504Z,11.30
2023-04-19T23:46:52.412Z,11.40
2023-04-19T23:49:23.404Z,11.60
2023-04-19T23:51:54.419Z,11.30
2023-04-19T23:54:26.364Z,11.10
2023-04-19T23:56:58.831Z,11.20
2023-04-19T23:59:30.646Z,10.90
